sensor_id;sensor_type;location;lat;lon;timestamp;P1;durP1;ratioP1;P2;durP2;ratioP2
50165;SDS011;36071;48.140;11.516;2023-12-20T00:00:16;6.1;;;3.0;;
50165;SDS011;36071;48.140;11.516;2023-12-20T00:05:16;5.3;;;2.8;;
50165;SDS011;36071;48.140;11.516;2023-12-20T00:10:16;3.5;;;2.4;;
50165;SDS011;36071;48.140;11.516;2023-12-20T00:15:16;3.8;;;2.3;;
50165;SDS011;36071;48.140;11.516;2023-12-20T00:20:16;5.4;;;2.8;;
50165;SDS011;36071;48.140;11.516;2023-12-20T00:25:19;4.0;;;2.1;;
50165;SDS011;36071;48.140;11.516;2023-12-20T00:30:16;3.3;;;2.1;;
50165;SDS011;36071;48.140;11.516;2023-12-20T00:35:16;2.7;;;1.9;;
50165;SDS011;36071;48.140;11.516;2023-12-20T00:40:16;3.9;;;2.0;;
50165;SDS011;36071;48.140;11.516;2023-12-20T00:45:16;3.1;;;2.0;;
50165;SDS011;36071;48.140;11.516;2023-12-20T00:50:16;3.3;;;1.9;;
50165;SDS011;36071;48.140;11.516;2023-12-20T00:55:16;2.6;;;1.9;;
50165;SDS011;36071;48.140;11.516;2023-12-20T01:00:16;3.0;;;1.7;;
50165;SDS011;36071;48.140;11.516;2023-12-20T01:05:16;2.7;;;1.6;;
50165;SDS011;36071;48.140;11.516;2023-12-20T01:10:16;2.9;;;1.7;;
50165;SDS011;36071;48.140;11.516;2023-12-20T01:15:16;2.7;;;1.5;;
50165;SDS011;36071;48.140;11.516;2023-12-20T01:20:16;2.1;;;1.5;;
50165;SDS011;36071;48.140;11.516;2023-12-20T01:25:19;2.8;;;1.6;;
50165;SDS011;36071;48.140;11.516;2023-12-20T01:30:16;2.7;;;1.5;;
50165;SDS011;36071;48.140;11.516;2023-12-20T01:35:16;2.5;;;1.5;;
50165;SDS011;36071;48.140;11.516;2023-12-20T01:40:16;2.5;;;1.3;;
50165;SDS011;36071;48.140;11.516;2023-12-20T01:45:16;2.1;;;1.4;;
50165;SDS011;36071;48.140;11.516;2023-12-20T01:50:16;3.4;;;1.3;;
50165;SDS011;36071;48.140;11.516;2023-12-20T01:55:16;1.5;;;1.0;;
50165;SDS011;36071;48.140;11.516;2023-12-20T02:00:21;2.3;;;1.2;;
50165;SDS011;36071;48.140;11.516;2023-12-20T02:05:16;3.0;;;1.2;;
50165;SDS011;36071;48.140;11.516;2023-12-20T02:10:16;2.5;;;1.5;;
50165;SDS011;36071;48.140;11.516;2023-12-20T02:15:16;1.8;;;1.2;;
50165;SDS011;36071;48.140;11.516;2023-12-20T02:20:16;2.0;;;1.1;;
50165;SDS011;36071;48.140;11.516;2023-12-20T02:25:16;1.7;;;1.1;;
50165;SDS011;36071;48.140;11.516;2023-12-20T02:30:16;1.1;;;0.8;;
50165;SDS011;36071;48.140;11.516;2023-12-20T02:35:16;1.6;;;0.9;;
50165;SDS011;36071;48.140;11.516;2023-12-20T02:40:16;1.2;;;0.9;;
50165;SDS011;36071;48.140;11.516;2023-12-20T02:45:16;1.7;;;0.8;;
50165;SDS011;36071;48.140;11.516;2023-12-20T02:50:16;1.2;;;0.7;;
50165;SDS011;36071;48.140;11.516;2023-12-20T02:55:16;1.7;;;0.6;;
50165;SDS011;36071;48.140;11.516;2023-12-20T03:00:16;1.5;;;0.8;;
50165;SDS011;36071;48.140;11.516;2023-12-20T03:05:16;0.8;;;0.7;;
50165;SDS011;36071;48.140;11.516;2023-12-20T03:10:16;3.0;;;0.9;;
50165;SDS011;36071;48.140;11.516;2023-12-20T03:15:16;1.8;;;0.9;;
50165;SDS011;36071;48.140;11.516;2023-12-20T03:20:16;1.2;;;0.8;;
50165;SDS011;36071;48.140;11.516;2023-12-20T03:25:16;0.8;;;0.6;;
50165;SDS011;36071;48.140;11.516;2023-12-20T03:30:16;1.1;;;0.8;;
50165;SDS011;36071;48.140;11.516;2023-12-20T03:35:16;0.8;;;0.6;;
50165;SDS011;36071;48.140;11.516;2023-12-20T03:40:16;1.3;;;0.7;;
50165;SDS011;36071;48.140;11.516;2023-12-20T03:45:16;0.8;;;0.7;;
50165;SDS011;36071;48.140;11.516;2023-12-20T03:50:16;1.4;;;0.7;;
50165;SDS011;36071;48.140;11.516;2023-12-20T03:55:16;1.1;;;1.0;;
50165;SDS011;36071;48.140;11.516;2023-12-20T04:00:16;1.5;;;0.8;;
50165;SDS011;36071;48.140;11.516;2023-12-20T04:05:16;1.6;;;0.9;;
50165;SDS011;36071;48.140;11.516;2023-12-20T04:10:16;1.3;;;0.8;;
50165;SDS011;36071;48.140;11.516;2023-12-20T04:15:16;1.1;;;0.6;;
50165;SDS011;36071;48.140;11.516;2023-12-20T04:20:16;2.6;;;0.9;;
50165;SDS011;36071;48.140;11.516;2023-12-20T04:25:16;1.1;;;0.9;;
50165;SDS011;36071;48.140;11.516;2023-12-20T04:30:16;1.4;;;0.9;;
50165;SDS011;36071;48.140;11.516;2023-12-20T04:35:16;1.1;;;0.8;;
50165;SDS011;36071;48.140;11.516;2023-12-20T04:40:16;2.3;;;1.1;;
50165;SDS011;36071;48.140;11.516;2023-12-20T04:45:16;1.4;;;1.0;;
50165;SDS011;36071;48.140;11.516;2023-12-20T04:50:16;2.1;;;1.2;;
50165;SDS011;36071;48.140;11.516;2023-12-20T04:55:16;1.8;;;1.2;;
50165;SDS011;36071;48.140;11.516;2023-12-20T05:00:16;1.9;;;1.2;;
50165;SDS011;36071;48.140;11.516;2023-12-20T05:05:16;2.2;;;1.4;;
50165;SDS011;36071;48.140;11.516;2023-12-20T05:10:16;2.1;;;1.4;;
50165;SDS011;36071;48.140;11.516;2023-12-20T05:15:16;2.5;;;1.7;;
50165;SDS011;36071;48.140;11.516;2023-12-20T05:20:16;2.5;;;1.8;;
50165;SDS011;36071;48.140;11.516;2023-12-20T05:25:16;2.0;;;1.5;;
50165;SDS011;36071;48.140;11.516;2023-12-20T05:30:16;2.7;;;1.7;;
50165;SDS011;36071;48.140;11.516;2023-12-20T05:35:16;2.7;;;1.9;;
50165;SDS011;36071;48.140;11.516;2023-12-20T05:40:17;3.3;;;2.0;;
50165;SDS011;36071;48.140;11.516;2023-12-20T05:45:16;2.6;;;1.8;;
50165;SDS011;36071;48.140;11.516;2023-12-20T05:50:16;4.1;;;1.6;;
50165;SDS011;36071;48.140;11.516;2023-12-20T05:55:19;3.8;;;2.1;;
50165;SDS011;36071;48.140;11.516;2023-12-20T06:00:16;2.1;;;1.2;;
50165;SDS011;36071;48.140;11.516;2023-12-20T06:05:16;2.3;;;1.8;;
50165;SDS011;36071;48.140;11.516;2023-12-20T06:10:16;2.0;;;1.6;;
50165;SDS011;36071;48.140;11.516;2023-12-20T06:15:16;5.5;;;1.6;;
50165;SDS011;36071;48.140;11.516;2023-12-20T06:20:16;2.7;;;1.7;;
50165;SDS011;36071;48.140;11.516;2023-12-20T06:25:16;3.0;;;1.5;;
50165;SDS011;36071;48.140;11.516;2023-12-20T06:30:16;3.9;;;1.6;;
50165;SDS011;36071;48.140;11.516;2023-12-20T06:35:16;6.7;;;3.2;;
50165;SDS011;36071;48.140;11.516;2023-12-20T06:40:16;5.7;;;2.0;;
50165;SDS011;36071;48.140;11.516;2023-12-20T06:45:21;7.3;;;2.8;;
50165;SDS011;36071;48.140;11.516;2023-12-20T06:50:16;8.3;;;3.4;;
50165;SDS011;36071;48.140;11.516;2023-12-20T06:55:16;7.1;;;3.1;;
50165;SDS011;36071;48.140;11.516;2023-12-20T07:00:16;4.9;;;2.4;;
50165;SDS011;36071;48.140;11.516;2023-12-20T07:05:16;3.0;;;1.7;;
50165;SDS011;36071;48.140;11.516;2023-12-20T07:10:16;8.5;;;4.1;;
50165;SDS011;36071;48.140;11.516;2023-12-20T07:15:16;9.2;;;3.7;;
50165;SDS011;36071;48.140;11.516;2023-12-20T07:20:16;4.8;;;1.5;;
50165;SDS011;36071;48.140;11.516;2023-12-20T07:25:16;2.6;;;1.4;;
50165;SDS011;36071;48.140;11.516;2023-12-20T07:30:16;2.8;;;1.1;;
50165;SDS011;36071;48.140;11.516;2023-12-20T07:35:16;2.2;;;1.1;;
50165;SDS011;36071;48.140;11.516;2023-12-20T07:40:16;2.9;;;1.0;;
50165;SDS011;36071;48.140;11.516;2023-12-20T07:45:16;1.1;;;0.8;;
50165;SDS011;36071;48.140;11.516;2023-12-20T07:50:16;2.9;;;1.0;;
50165;SDS011;36071;48.140;11.516;2023-12-20T07:55:16;3.3;;;1.1;;
50165;SDS011;36071;48.140;11.516;2023-12-20T08:00:16;1.2;;;0.9;;
50165;SDS011;36071;48.140;11.516;2023-12-20T08:05:16;2.4;;;1.1;;
50165;SDS011;36071;48.140;11.516;2023-12-20T08:10:16;1.3;;;0.8;;
50165;SDS011;36071;48.140;11.516;2023-12-20T08:15:19;1.6;;;0.9;;
50165;SDS011;36071;48.140;11.516;2023-12-20T08:20:16;2.0;;;1.0;;
50165;SDS011;36071;48.140;11.516;2023-12-20T08:25:16;2.5;;;0.9;;
50165;SDS011;36071;48.140;11.516;2023-12-20T08:30:16;1.1;;;0.7;;
50165;SDS011;36071;48.140;11.516;2023-12-20T08:35:16;2.5;;;0.9;;
50165;SDS011;36071;48.140;11.516;2023-12-20T08:40:16;1.2;;;0.7;;
50165;SDS011;36071;48.140;11.516;2023-12-20T08:45:16;0.9;;;0.8;;
50165;SDS011;36071;48.140;11.516;2023-12-20T08:55:16;1.6;;;0.8;;
50165;SDS011;36071;48.140;11.516;2023-12-20T09:00:16;1.7;;;0.8;;
50165;SDS011;36071;48.140;11.516;2023-12-20T09:05:16;1.3;;;0.8;;
50165;SDS011;36071;48.140;11.516;2023-12-20T09:10:16;1.2;;;0.7;;
50165;SDS011;36071;48.140;11.516;2023-12-20T09:15:16;1.5;;;0.9;;
50165;SDS011;36071;48.140;11.516;2023-12-20T09:20:16;1.2;;;0.9;;
50165;SDS011;36071;48.140;11.516;2023-12-20T09:25:16;1.8;;;0.7;;
50165;SDS011;36071;48.140;11.516;2023-12-20T09:30:16;1.5;;;0.7;;
50165;SDS011;36071;48.140;11.516;2023-12-20T09:35:16;1.1;;;0.7;;
50165;SDS011;36071;48.140;11.516;2023-12-20T09:40:16;0.8;;;0.7;;
50165;SDS011;36071;48.140;11.516;2023-12-20T09:45:16;2.0;;;1.2;;
50165;SDS011;36071;48.140;11.516;2023-12-20T09:50:16;1.6;;;0.7;;
50165;SDS011;36071;48.140;11.516;2023-12-20T09:55:16;2.3;;;0.9;;
50165;SDS011;36071;48.140;11.516;2023-12-20T10:00:16;0.8;;;0.7;;
50165;SDS011;36071;48.140;11.516;2023-12-20T10:05:16;1.0;;;0.8;;
50165;SDS011;36071;48.140;11.516;2023-12-20T10:10:16;1.2;;;0.9;;
50165;SDS011;36071;48.140;11.516;2023-12-20T10:15:16;2.6;;;1.0;;
50165;SDS011;36071;48.140;11.516;2023-12-20T10:20:16;2.2;;;1.0;;
50165;SDS011;36071;48.140;11.516;2023-12-20T10:25:16;1.1;;;1.0;;
50165;SDS011;36071;48.140;11.516;2023-12-20T10:30:19;2.5;;;1.0;;
50165;SDS011;36071;48.140;11.516;2023-12-20T10:35:16;1.8;;;0.9;;
50165;SDS011;36071;48.140;11.516;2023-12-20T10:40:17;3.7;;;1.0;;
50165;SDS011;36071;48.140;11.516;2023-12-20T10:45:16;1.0;;;0.8;;
50165;SDS011;36071;48.140;11.516;2023-12-20T10:50:16;0.8;;;0.8;;
50165;SDS011;36071;48.140;11.516;2023-12-20T10:55:16;1.0;;;0.9;;
50165;SDS011;36071;48.140;11.516;2023-12-20T11:00:16;1.4;;;0.9;;
50165;SDS011;36071;48.140;11.516;2023-12-20T11:05:22;2.5;;;1.5;;
50165;SDS011;36071;48.140;11.516;2023-12-20T11:10:16;4.1;;;2.4;;
50165;SDS011;36071;48.140;11.516;2023-12-20T11:15:16;3.5;;;1.6;;
50165;SDS011;36071;48.140;11.516;2023-12-20T11:20:16;2.6;;;1.8;;
50165;SDS011;36071;48.140;11.516;2023-12-20T11:25:16;2.0;;;1.2;;
50165;SDS011;36071;48.140;11.516;2023-12-20T11:30:16;2.9;;;1.5;;
50165;SDS011;36071;48.140;11.516;2023-12-20T11:35:16;4.2;;;1.7;;
50165;SDS011;36071;48.140;11.516;2023-12-20T11:40:16;2.3;;;1.4;;
50165;SDS011;36071;48.140;11.516;2023-12-20T11:45:16;3.5;;;1.7;;
50165;SDS011;36071;48.140;11.516;2023-12-20T11:50:19;3.3;;;1.5;;
50165;SDS011;36071;48.140;11.516;2023-12-20T11:55:16;3.9;;;1.5;;
50165;SDS011;36071;48.140;11.516;2023-12-20T12:00:16;2.3;;;1.4;;
50165;SDS011;36071;48.140;11.516;2023-12-20T12:05:16;3.7;;;1.3;;
50165;SDS011;36071;48.140;11.516;2023-12-20T12:10:16;1.6;;;1.2;;
50165;SDS011;36071;48.140;11.516;2023-12-20T12:15:16;1.6;;;1.1;;
50165;SDS011;36071;48.140;11.516;2023-12-20T12:20:16;1.3;;;1.0;;
50165;SDS011;36071;48.140;11.516;2023-12-20T12:25:16;4.6;;;2.2;;
50165;SDS011;36071;48.140;11.516;2023-12-20T12:30:16;1.8;;;1.0;;
50165;SDS011;36071;48.140;11.516;2023-12-20T12:35:16;2.0;;;1.0;;
50165;SDS011;36071;48.140;11.516;2023-12-20T12:40:16;2.4;;;1.4;;
50165;SDS011;36071;48.140;11.516;2023-12-20T12:45:16;1.5;;;1.2;;
50165;SDS011;36071;48.140;11.516;2023-12-20T12:50:16;1.4;;;1.2;;
50165;SDS011;36071;48.140;11.516;2023-12-20T12:55:16;2.4;;;1.4;;
50165;SDS011;36071;48.140;11.516;2023-12-20T13:00:16;2.4;;;1.6;;
50165;SDS011;36071;48.140;11.516;2023-12-20T13:05:16;1.9;;;1.7;;
50165;SDS011;36071;48.140;11.516;2023-12-20T13:10:16;2.8;;;1.6;;
50165;SDS011;36071;48.140;11.516;2023-12-20T13:15:16;3.7;;;1.6;;
50165;SDS011;36071;48.140;11.516;2023-12-20T13:20:19;4.5;;;1.8;;
50165;SDS011;36071;48.140;11.516;2023-12-20T13:25:16;3.2;;;1.4;;
50165;SDS011;36071;48.140;11.516;2023-12-20T13:30:16;2.9;;;1.4;;
50165;SDS011;36071;48.140;11.516;2023-12-20T13:35:19;3.5;;;1.5;;
50165;SDS011;36071;48.140;11.516;2023-12-20T13:40:16;4.0;;;1.7;;
50165;SDS011;36071;48.140;11.516;2023-12-20T13:45:16;6.1;;;2.7;;
50165;SDS011;36071;48.140;11.516;2023-12-20T13:50:19;5.0;;;1.9;;
50165;SDS011;36071;48.140;11.516;2023-12-20T13:55:16;6.0;;;2.2;;
50165;SDS011;36071;48.140;11.516;2023-12-20T14:00:16;4.1;;;1.9;;
50165;SDS011;36071;48.140;11.516;2023-12-20T14:05:16;3.8;;;1.6;;
50165;SDS011;36071;48.140;11.516;2023-12-20T14:10:16;5.2;;;1.9;;
50165;SDS011;36071;48.140;11.516;2023-12-20T14:15:16;5.8;;;2.5;;
50165;SDS011;36071;48.140;11.516;2023-12-20T14:20:16;4.8;;;1.7;;
50165;SDS011;36071;48.140;11.516;2023-12-20T14:25:16;6.2;;;2.4;;
50165;SDS011;36071;48.140;11.516;2023-12-20T14:30:16;4.2;;;2.0;;
50165;SDS011;36071;48.140;11.516;2023-12-20T14:35:16;5.5;;;2.5;;
50165;SDS011;36071;48.140;11.516;2023-12-20T14:40:16;7.3;;;1.9;;
50165;SDS011;36071;48.140;11.516;2023-12-20T14:45:16;8.2;;;2.2;;
50165;SDS011;36071;48.140;11.516;2023-12-20T14:50:16;7.9;;;2.4;;
50165;SDS011;36071;48.140;11.516;2023-12-20T14:55:16;4.1;;;2.0;;
50165;SDS011;36071;48.140;11.516;2023-12-20T15:00:16;4.9;;;2.3;;
50165;SDS011;36071;48.140;11.516;2023-12-20T15:05:19;4.7;;;2.5;;
50165;SDS011;36071;48.140;11.516;2023-12-20T15:10:16;5.6;;;2.1;;
50165;SDS011;36071;48.140;11.516;2023-12-20T15:15:16;4.1;;;1.6;;
50165;SDS011;36071;48.140;11.516;2023-12-20T15:20:16;5.3;;;1.9;;
50165;SDS011;36071;48.140;11.516;2023-12-20T15:25:16;9.1;;;3.4;;
50165;SDS011;36071;48.140;11.516;2023-12-20T15:30:16;14.7;;;7.0;;
50165;SDS011;36071;48.140;11.516;2023-12-20T15:35:16;9.0;;;3.3;;
50165;SDS011;36071;48.140;11.516;2023-12-20T15:40:16;4.3;;;2.1;;
50165;SDS011;36071;48.140;11.516;2023-12-20T15:45:16;6.9;;;3.4;;
50165;SDS011;36071;48.140;11.516;2023-12-20T15:50:16;13.5;;;5.4;;
50165;SDS011;36071;48.140;11.516;2023-12-20T15:55:16;8.5;;;3.0;;
50165;SDS011;36071;48.140;11.516;2023-12-20T16:00:16;5.3;;;2.3;;
50165;SDS011;36071;48.140;11.516;2023-12-20T16:05:16;8.4;;;3.4;;
50165;SDS011;36071;48.140;11.516;2023-12-20T16:10:16;3.5;;;1.8;;
50165;SDS011;36071;48.140;11.516;2023-12-20T16:15:16;3.9;;;1.5;;
50165;SDS011;36071;48.140;11.516;2023-12-20T16:20:16;5.1;;;2.3;;
50165;SDS011;36071;48.140;11.516;2023-12-20T16:25:16;6.2;;;2.2;;
50165;SDS011;36071;48.140;11.516;2023-12-20T16:30:27;3.3;;;1.7;;
50165;SDS011;36071;48.140;11.516;2023-12-20T16:40:16;5.0;;;1.7;;
50165;SDS011;36071;48.140;11.516;2023-12-20T16:45:16;4.9;;;1.6;;
50165;SDS011;36071;48.140;11.516;2023-12-20T16:50:16;5.7;;;1.6;;
50165;SDS011;36071;48.140;11.516;2023-12-20T16:55:16;5.5;;;1.4;;
50165;SDS011;36071;48.140;11.516;2023-12-20T17:00:16;5.2;;;1.7;;
50165;SDS011;36071;48.140;11.516;2023-12-20T17:05:16;5.2;;;1.6;;
50165;SDS011;36071;48.140;11.516;2023-12-20T17:10:16;4.1;;;1.6;;
50165;SDS011;36071;48.140;11.516;2023-12-20T17:15:16;8.5;;;2.0;;
50165;SDS011;36071;48.140;11.516;2023-12-20T17:20:16;3.3;;;1.9;;
50165;SDS011;36071;48.140;11.516;2023-12-20T17:25:16;6.4;;;1.6;;
50165;SDS011;36071;48.140;11.516;2023-12-20T17:30:16;3.7;;;1.8;;
50165;SDS011;36071;48.140;11.516;2023-12-20T17:35:16;2.8;;;1.8;;
50165;SDS011;36071;48.140;11.516;2023-12-20T17:40:16;5.1;;;1.4;;
50165;SDS011;36071;48.140;11.516;2023-12-20T17:45:16;3.6;;;1.5;;
50165;SDS011;36071;48.140;11.516;2023-12-20T17:50:16;4.9;;;1.6;;
50165;SDS011;36071;48.140;11.516;2023-12-20T17:55:16;7.0;;;1.8;;
50165;SDS011;36071;48.140;11.516;2023-12-20T18:00:17;6.1;;;2.5;;
50165;SDS011;36071;48.140;11.516;2023-12-20T18:05:21;4.4;;;1.6;;
50165;SDS011;36071;48.140;11.516;2023-12-20T18:10:16;5.6;;;1.6;;
50165;SDS011;36071;48.140;11.516;2023-12-20T18:15:16;3.9;;;1.5;;
50165;SDS011;36071;48.140;11.516;2023-12-20T18:20:16;3.6;;;1.5;;
50165;SDS011;36071;48.140;11.516;2023-12-20T18:25:16;3.3;;;1.2;;
50165;SDS011;36071;48.140;11.516;2023-12-20T18:30:16;7.4;;;1.4;;
50165;SDS011;36071;48.140;11.516;2023-12-20T18:35:16;3.8;;;1.5;;
50165;SDS011;36071;48.140;11.516;2023-12-20T18:40:16;4.8;;;1.4;;
50165;SDS011;36071;48.140;11.516;2023-12-20T18:45:16;2.5;;;1.3;;
50165;SDS011;36071;48.140;11.516;2023-12-20T18:50:16;3.2;;;1.4;;
50165;SDS011;36071;48.140;11.516;2023-12-20T18:55:16;4.9;;;2.0;;
50165;SDS011;36071;48.140;11.516;2023-12-20T19:00:19;3.9;;;1.3;;
50165;SDS011;36071;48.140;11.516;2023-12-20T19:05:16;3.6;;;1.5;;
50165;SDS011;36071;48.140;11.516;2023-12-20T19:10:16;4.4;;;1.5;;
50165;SDS011;36071;48.140;11.516;2023-12-20T19:15:16;2.8;;;1.2;;
50165;SDS011;36071;48.140;11.516;2023-12-20T19:20:16;5.1;;;1.7;;
50165;SDS011;36071;48.140;11.516;2023-12-20T19:25:16;5.2;;;1.5;;
50165;SDS011;36071;48.140;11.516;2023-12-20T19:30:16;3.7;;;1.2;;
50165;SDS011;36071;48.140;11.516;2023-12-20T19:35:16;4.9;;;1.5;;
50165;SDS011;36071;48.140;11.516;2023-12-20T19:40:16;5.2;;;1.5;;
50165;SDS011;36071;48.140;11.516;2023-12-20T19:45:17;4.4;;;1.6;;
50165;SDS011;36071;48.140;11.516;2023-12-20T19:50:16;4.6;;;1.7;;
50165;SDS011;36071;48.140;11.516;2023-12-20T19:55:16;3.9;;;1.4;;
50165;SDS011;36071;48.140;11.516;2023-12-20T20:00:19;3.6;;;1.5;;
50165;SDS011;36071;48.140;11.516;2023-12-20T20:05:16;3.4;;;1.5;;
50165;SDS011;36071;48.140;11.516;2023-12-20T20:10:16;3.3;;;1.3;;
50165;SDS011;36071;48.140;11.516;2023-12-20T20:15:16;2.5;;;1.4;;
50165;SDS011;36071;48.140;11.516;2023-12-20T20:20:16;6.7;;;1.8;;
50165;SDS011;36071;48.140;11.516;2023-12-20T20:25:16;6.1;;;2.0;;
50165;SDS011;36071;48.140;11.516;2023-12-20T20:30:16;4.0;;;2.1;;
50165;SDS011;36071;48.140;11.516;2023-12-20T20:35:16;5.7;;;1.7;;
50165;SDS011;36071;48.140;11.516;2023-12-20T20:40:16;5.5;;;2.1;;
50165;SDS011;36071;48.140;11.516;2023-12-20T20:45:16;4.8;;;2.1;;
50165;SDS011;36071;48.140;11.516;2023-12-20T20:50:16;4.2;;;1.6;;
50165;SDS011;36071;48.140;11.516;2023-12-20T20:55:16;6.9;;;2.2;;
50165;SDS011;36071;48.140;11.516;2023-12-20T21:00:16;6.0;;;2.0;;
50165;SDS011;36071;48.140;11.516;2023-12-20T21:05:16;6.2;;;1.5;;
50165;SDS011;36071;48.140;11.516;2023-12-20T21:10:16;2.8;;;1.2;;
50165;SDS011;36071;48.140;11.516;2023-12-20T21:15:16;4.0;;;1.2;;
50165;SDS011;36071;48.140;11.516;2023-12-20T21:20:16;3.6;;;1.4;;
50165;SDS011;36071;48.140;11.516;2023-12-20T21:25:16;4.0;;;1.2;;
50165;SDS011;36071;48.140;11.516;2023-12-20T21:30:16;4.1;;;1.4;;
50165;SDS011;36071;48.140;11.516;2023-12-20T21:35:16;4.0;;;1.3;;
50165;SDS011;36071;48.140;11.516;2023-12-20T21:40:16;4.8;;;1.2;;
50165;SDS011;36071;48.140;11.516;2023-12-20T21:45:16;2.5;;;1.2;;
50165;SDS011;36071;48.140;11.516;2023-12-20T21:50:19;3.6;;;1.4;;
50165;SDS011;36071;48.140;11.516;2023-12-20T21:55:16;4.6;;;1.3;;
50165;SDS011;36071;48.140;11.516;2023-12-20T22:00:16;3.3;;;1.3;;
50165;SDS011;36071;48.140;11.516;2023-12-20T22:05:16;4.9;;;1.3;;
50165;SDS011;36071;48.140;11.516;2023-12-20T22:10:16;4.6;;;1.5;;
50165;SDS011;36071;48.140;11.516;2023-12-20T22:15:16;5.0;;;1.2;;
50165;SDS011;36071;48.140;11.516;2023-12-20T22:20:16;4.1;;;1.3;;
50165;SDS011;36071;48.140;11.516;2023-12-20T22:25:16;4.5;;;1.4;;
50165;SDS011;36071;48.140;11.516;2023-12-20T22:30:16;4.1;;;1.3;;
50165;SDS011;36071;48.140;11.516;2023-12-20T22:35:16;3.7;;;1.3;;
50165;SDS011;36071;48.140;11.516;2023-12-20T22:40:16;4.0;;;1.1;;
50165;SDS011;36071;48.140;11.516;2023-12-20T22:45:16;3.0;;;1.3;;
50165;SDS011;36071;48.140;11.516;2023-12-20T22:50:16;2.1;;;0.9;;
50165;SDS011;36071;48.140;11.516;2023-12-20T22:55:21;3.3;;;0.9;;
50165;SDS011;36071;48.140;11.516;2023-12-20T23:00:16;3.1;;;1.0;;
50165;SDS011;36071;48.140;11.516;2023-12-20T23:05:16;1.6;;;0.8;;
50165;SDS011;36071;48.140;11.516;2023-12-20T23:10:16;2.1;;;0.8;;
50165;SDS011;36071;48.140;11.516;2023-12-20T23:15:16;3.2;;;1.0;;
50165;SDS011;36071;48.140;11.516;2023-12-20T23:20:17;4.4;;;0.9;;
50165;SDS011;36071;48.140;11.516;2023-12-20T23:25:16;4.8;;;0.8;;
50165;SDS011;36071;48.140;11.516;2023-12-20T23:30:16;2.6;;;1.2;;
50165;SDS011;36071;48.140;11.516;2023-12-20T23:35:19;2.0;;;0.7;;
50165;SDS011;36071;48.140;11.516;2023-12-20T23:40:16;1.8;;;1.3;;
50165;SDS011;36071;48.140;11.516;2023-12-20T23:45:16;3.5;;;0.7;;
50165;SDS011;36071;48.140;11.516;2023-12-20T23:50:16;1.3;;;0.6;;
50165;SDS011;36071;48.140;11.516;2023-12-20T23:55:16;2.6;;;0.6;;
